CheckWX is a tool to help pilots better visualize weather data.  It is not intended as a substitute for an official pre-flight weather briefing.

15:40:23 UTC

KOMH METAR
Orange County Airport
Orange, Virginia, USA
Current

25 mins ago

KOMH 261515Z AUTO 21007KT 10SM CLR 30/18 A3004 RMK AO2
Observed
May-26 @ 15:15 UTC
Wind
  • 210° at 7 KTS
Visibility
10 SM
Flight Rules
VFR
Cloud Levels
  • Clear skies
Temperature
30°C / 86°F
Dewpoint
18°C / 64°F
Heat Index
31°C / 88°F
Humidity
49%
Altimeter
30.04" Hg
Pressure
1017.32 hPa
Previous

45 mins ago

KOMH 261455Z AUTO 18006KT 10SM CLR 30/19 A3004 RMK AO2
Observed
May-26 @ 14:55 UTC
Wind
  • 180° at 6 KTS
Visibility
10 SM
Flight Rules
VFR
Cloud Levels
  • Clear skies
Temperature
30°C / 86°F
Dewpoint
19°C / 66°F
Heat Index
31°C / 88°F
Humidity
52%
Altimeter
30.04" Hg
Pressure
1017.32 hPa
Previous

1 hour ago

KOMH 261435Z AUTO 20005KT 10SM CLR 29/18 A3005 RMK AO2
Observed
May-26 @ 14:35 UTC
Wind
  • 200° at 5 KTS
Visibility
10 SM
Flight Rules
VFR
Cloud Levels
  • Clear skies
Temperature
29°C / 84°F
Dewpoint
18°C / 64°F
Heat Index
29°C / 85°F
Humidity
51%
Altimeter
30.05" Hg
Pressure
1017.62 hPa